Time;durP1;ratioP1;P1;durP2;ratioP2;P2;SDS_P1;SDS_P2;PMS_P1;PMS_P2;Temp;Humidity;BMP_temperature;BMP_pressure;BME280_temperature;BME280_humidity;BME280_pressure;Samples;Min_cycle;Max_cycle;Signal;HPM_P1;HPM_P2
2023/02/08 08:42:00;;;;;;;20.15;9.40;;;;;;;4.34;41.44;98355.13;2083736;28;21063;-60
2023/02/08 08:43:01;;;;;;;29.73;11.13;;;;;;;4.18;41.82;98358.44;2076713;28;20601;-60
2023/02/08 08:44:03;;;;;;;21.85;10.55;;;;;;;4.17;42.01;98351.53;2070778;28;20194;-62
2023/02/08 08:45:06;;;;;;;26.55;9.55;;;;;;;2.81;42.53;98335.47;2079972;28;20715;-62
2023/02/08 08:46:08;;;;;;;19.95;8.98;;;;;;;3.76;42.10;98346.00;2074961;28;20198;-60
2023/02/08 08:47:10;;;;;;;20.10;9.43;;;;;;;4.93;40.44;98349.41;2083485;28;20220;-61
2023/02/08 08:48:11;;;;;;;16.60;8.35;;;;;;;3.86;41.52;98344.38;2087132;28;20207;-61
2023/02/08 08:49:13;;;;;;;21.25;8.90;;;;;;;3.43;42.35;98351.69;2079582;28;20332;-60
2023/02/08 08:50:14;;;;;;;22.58;9.05;;;;;;;4.17;42.11;98347.22;2076908;28;20223;-60
2023/02/08 08:51:16;;;;;;;27.08;9.27;;;;;;;3.10;42.50;98351.31;2077065;28;20193;-60
2023/02/08 08:52:17;;;;;;;24.98;9.20;;;;;;;2.93;44.37;98345.06;2076356;28;20233;-60
2023/02/08 08:53:20;;;;;;;24.52;9.85;;;;;;;3.62;42.99;98344.13;2077982;28;20268;-61
2023/02/08 08:54:22;;;;;;;18.02;8.38;;;;;;;4.85;40.92;98352.84;2079604;28;20209;-60
2023/02/08 08:55:24;;;;;;;24.88;8.55;;;;;;;2.54;41.90;98349.72;2075535;28;20205;-60
2023/02/08 08:56:26;;;;;;;20.92;9.05;;;;;;;2.66;43.53;98349.00;2078116;28;20204;-60
2023/02/08 08:57:27;;;;;;;23.30;9.40;;;;;;;2.52;43.76;98348.81;2075303;28;20237;-60
2023/02/08 08:58:29;;;;;;;17.50;8.80;;;;;;;3.32;43.03;98338.66;2075337;28;20399;-60
2023/02/08 08:59:31;;;;;;;19.20;9.93;;;;;;;3.48;41.94;98354.31;2079755;28;20201;-60
2023/02/08 09:00:32;;;;;;;18.20;9.18;;;;;;;2.50;42.75;98303.22;2079601;28;20216;-60
2023/02/08 09:01:34;;;;;;;20.73;9.60;;;;;;;2.35;42.74;98342.53;2077988;28;20217;-60
2023/02/08 09:02:35;;;;;;;22.02;9.82;;;;;;;2.28;43.11;98337.28;2077453;28;20224;-60
2023/02/08 09:03:37;;;;;;;25.63;8.85;;;;;;;3.13;42.45;98340.16;2078675;28;20251;-60
2023/02/08 09:04:39;;;;;;;16.38;8.52;;;;;;;2.92;42.10;98333.88;2079210;28;20198;-62
2023/02/08 09:05:41;;;;;;;17.55;8.75;;;;;;;3.45;42.98;98338.78;2078626;28;20209;-61
2023/02/08 09:06:42;;;;;;;15.45;8.55;;;;;;;4.60;41.47;98336.31;2074563;28;20545;-60
2023/02/08 09:07:44;;;;;;;14.60;8.60;;;;;;;4.04;41.26;98337.66;2076423;28;20197;-60
2023/02/08 09:08:45;;;;;;;17.33;9.43;;;;;;;4.19;40.20;98342.03;2079702;28;20193;-60
2023/02/08 09:09:47;;;;;;;20.80;8.63;;;;;;;4.47;41.13;98347.44;2080706;28;20197;-60
2023/02/08 09:10:48;;;;;;;18.58;7.80;;;;;;;3.65;40.62;98333.84;2078971;28;20193;-60
2023/02/08 09:11:50;;;;;;;19.98;9.52;;;;;;;3.65;41.80;98339.00;2080312;28;20193;-60
2023/02/08 09:12:51;;;;;;;19.85;9.50;;;;;;;4.68;40.25;98338.94;2077407;28;20538;-60
2023/02/08 09:13:55;;;;;;;22.23;10.25;;;;;;;3.57;40.71;98346.69;2074731;28;20642;-60
2023/02/08 09:14:56;;;;;;;25.45;9.50;;;;;;;4.18;41.68;98340.34;2076001;28;20240;-61
2023/02/08 09:15:58;;;;;;;28.38;9.05;;;;;;;4.80;40.17;98338.13;2081024;28;20235;-60
2023/02/08 09:16:59;;;;;;;35.20;10.85;;;;;;;6.14;38.82;98338.53;2073319;28;20214;-61
2023/02/08 09:18:00;;;;;;;19.25;9.15;;;;;;;6.73;37.49;98335.91;2076276;28;20537;-61
2023/02/08 09:19:07;;;;;;;23.77;9.50;;;;;;;6.92;37.83;98341.91;2074434;28;20677;-61
2023/02/08 09:20:09;;;;;;;20.77;8.18;;;;;;;7.22;35.72;98331.41;2077362;28;20202;-60
2023/02/08 09:21:16;;;;;;;28.20;10.23;;;;;;;6.89;37.01;98336.72;2075428;28;20202;-61
2023/02/08 09:22:19;;;;;;;25.38;10.32;;;;;;;6.95;36.07;98341.03;2078230;28;20229;-61
2023/02/08 09:23:20;;;;;;;20.10;10.00;;;;;;;6.13;37.70;98338.56;2079833;28;20337;-60
2023/02/08 09:24:22;;;;;;;30.95;10.30;;;;;;;6.86;37.20;98331.53;2079982;28;20244;-61
2023/02/08 09:25:24;;;;;;;46.08;10.88;;;;;;;6.48;36.71;98332.47;2081205;28;20310;-60
2023/02/08 09:26:25;;;;;;;28.70;10.48;;;;;;;6.84;36.46;98317.69;2080501;28;20205;-61
2023/02/08 09:27:28;;;;;;;26.02;11.10;;;;;;;6.81;37.56;98328.09;2075282;28;20266;-61
2023/02/08 09:28:30;;;;;;;34.22;10.80;;;;;;;7.26;37.50;98335.72;2076469;28;20281;-61
2023/02/08 09:29:32;;;;;;;34.95;10.57;;;;;;;7.25;36.62;98336.59;2076770;28;20208;-61
2023/02/08 09:30:34;;;;;;;26.33;9.60;;;;;;;7.22;35.11;98336.59;2073913;28;20789;-61
2023/02/08 09:31:36;;;;;;;25.08;9.88;;;;;;;7.91;34.83;98336.22;2074731;28;20205;-61
2023/02/08 09:32:38;;;;;;;22.77;9.93;;;;;;;7.62;34.66;98324.28;2076106;28;20259;-61
2023/02/08 09:33:40;;;;;;;28.52;9.15;;;;;;;6.77;36.05;98321.19;2075355;28;20209;-61
2023/02/08 09:34:41;;;;;;;27.52;11.95;;;;;;;6.17;37.04;98332.50;2075449;28;20650;-60
2023/02/08 09:35:43;;;;;;;30.42;11.00;;;;;;;6.99;36.78;98329.75;2079755;28;20300;-61
2023/02/08 09:36:44;;;;;;;23.30;9.25;;;;;;;6.83;36.56;98324.63;2078992;28;20239;-61
2023/02/08 09:37:46;;;;;;;16.73;8.32;;;;;;;6.79;36.71;98328.09;2075957;28;20205;-61
2023/02/08 09:38:49;;;;;;;20.65;10.55;;;;;;;5.83;37.14;98335.06;2078774;28;20667;-61
2023/02/08 09:39:51;;;;;;;27.70;9.80;;;;;;;6.15;38.50;98335.09;2078453;28;20680;-61
2023/02/08 09:41:02;;;;;;;24.98;10.38;;;;;;;5.44;37.89;98328.94;2075540;28;20202;-61
2023/02/08 09:42:08;;;;;;;23.77;8.68;;;;;;;6.77;37.71;98327.22;2076153;28;20252;-62
2023/02/08 09:43:34;;;;;;;25.30;10.43;;;;;;;6.81;36.85;98323.75;2076509;28;20239;-61
2023/02/08 09:44:56;;;;;;;31.00;10.35;;;;;;;7.77;36.96;98323.31;2060424;28;20226;-62
2023/02/08 09:46:14;;;;;;;24.23;9.20;;;;;;;7.91;35.77;98319.72;2076410;28;20199;-62
2023/02/08 09:47:15;;;;;;;44.15;10.63;;;;;;;8.40;35.84;98324.53;2073577;28;20258;-62
2023/02/08 09:48:25;;;;;;;26.17;10.15;;;;;;;8.94;34.38;98326.63;2076723;28;20211;-62
2023/02/08 09:49:32;;;;;;;26.58;9.98;;;;;;;7.65;36.06;98326.84;2077782;28;20210;-62
2023/02/08 09:50:40;;;;;;;24.35;8.68;;;;;;;7.38;35.60;98325.28;2078439;28;20724;-63
2023/02/08 09:51:52;;;;;;;30.95;10.40;;;;;;;7.60;35.66;98320.81;2075106;28;20206;-61
2023/02/08 09:53:04;;;;;;;24.90;8.65;;;;;;;7.61;35.21;98319.09;2075067;28;21099;-62
2023/02/08 09:54:19;;;;;;;31.10;9.43;;;;;;;6.35;35.47;98323.84;2071766;28;20234;-62
2023/02/08 09:55:40;;;;;;;23.35;8.73;;;;;;;7.05;35.87;98327.16;2070242;28;20291;-62
2023/02/08 09:56:43;;;;;;;26.25;8.63;;;;;;;5.50;37.12;98324.63;2069789;28;20221;-61
2023/02/08 09:57:46;;;;;;;25.35;9.73;;;;;;;5.49;37.36;98324.63;2071020;28;20205;-62
2023/02/08 09:58:52;;;;;;;18.67;9.13;;;;;;;5.61;37.63;98327.25;2068253;28;20202;-61
2023/02/08 10:00:01;;;;;;;30.10;10.75;;;;;;;5.44;38.90;98328.94;2070675;28;20288;-62
2023/02/08 10:01:06;;;;;;;36.20;9.75;;;;;;;6.51;37.08;98328.16;2071219;28;20201;-62
2023/02/08 10:02:17;;;;;;;32.17;9.93;;;;;;;6.70;36.97;98320.31;2072433;28;20368;-62
2023/02/08 10:03:33;;;;;;;23.67;9.15;;;;;;;6.57;37.08;98305.66;2069614;28;20202;-63
2023/02/08 10:04:50;;;;;;;36.45;10.32;;;;;;;7.83;37.15;98301.59;2071224;28;20229;-62
2023/02/08 10:05:51;;;;;;;28.13;10.13;;;;;;;8.29;35.93;98321.16;2074603;28;20236;-62
2023/02/08 10:06:53;;;;;;;30.55;10.40;;;;;;;8.44;35.88;98326.25;2072184;28;20238;-62
2023/02/08 10:07:55;;;;;;;27.67;10.90;;;;;;;9.27;34.44;98332.31;2073649;28;20230;-63
2023/02/08 10:09:02;;;;;;;35.55;10.88;;;;;;;9.31;34.40;98327.94;2071512;28;20228;-63
2023/02/08 10:10:10;;;;;;;31.75;10.45;;;;;;;8.40;34.93;98324.53;2070134;28;21063;-62
2023/02/08 10:11:39;;;;;;;26.45;9.43;;;;;;;9.55;34.54;98331.09;2068193;28;20199;-63
2023/02/08 10:13:01;;;;;;;24.08;9.73;;;;;;;10.11;32.93;98325.94;2068652;28;20265;-63
2023/02/08 10:14:27;;;;;;;25.88;10.02;;;;;;;9.30;33.13;98329.66;2071256;28;20199;-63
2023/02/08 10:15:37;;;;;;;27.92;9.18;;;;;;;9.22;34.03;98335.84;2072001;28;20202;-63
2023/02/08 10:17:09;;;;;;;32.63;10.50;;;;;;;9.43;33.71;98330.41;2073058;28;20625;-63
2023/02/08 10:18:23;;;;;;;26.58;9.63;;;;;;;9.89;33.25;98336.72;2074253;28;20217;-63
2023/02/08 10:19:33;;;;;;;23.30;9.15;;;;;;;7.85;34.00;98328.47;2074391;28;20195;-63
2023/02/08 10:20:39;;;;;;;23.48;8.77;;;;;;;8.81;34.32;98325.03;2072171;28;20208;-63
2023/02/08 10:21:58;;;;;;;16.20;9.07;;;;;;;9.46;34.36;98327.72;2069193;28;20199;-62
2023/02/08 10:23:13;;;;;;;32.28;9.70;;;;;;;10.08;33.25;98318.13;2070420;28;20215;-63
2023/02/08 10:24:26;;;;;;;28.98;9.32;;;;;;;9.21;32.85;98321.97;2070347;28;20201;-63
2023/02/08 10:25:45;;;;;;;25.70;9.50;;;;;;;9.29;34.00;98321.88;2070026;28;20343;-63
2023/02/08 10:27:11;;;;;;;23.25;9.32;;;;;;;9.85;32.93;98310.66;2069267;28;20247;-63
2023/02/08 10:28:29;;;;;;;26.55;10.77;;;;;;;10.70;32.48;98304.91;2069354;28;20215;-63
2023/02/08 10:29:33;;;;;;;28.58;10.57;;;;;;;9.85;31.77;98308.91;2070683;28;20288;-63
2023/02/08 10:30:56;;;;;;;26.45;10.45;;;;;;;10.51;32.14;98311.38;2072644;28;20247;-63
2023/02/08 10:32:10;;;;;;;40.40;10.93;;;;;;;9.17;32.62;98308.97;2068948;28;20538;-63
2023/02/08 10:33:29;;;;;;;22.75;10.07;;;;;;;9.52;33.47;98308.53;2071938;28;20205;-63
2023/02/08 10:34:55;;;;;;;23.35;9.02;;;;;;;9.79;32.55;98309.03;2071063;28;20690;-63
2023/02/08 10:35:56;;;;;;;24.45;9.45;;;;;;;9.47;33.20;98299.91;2071938;28;20223;-63
2023/02/08 10:37:00;;;;;;;29.77;9.57;;;;;;;10.59;32.03;98294.66;2071555;28;20204;-63
2023/02/08 10:38:31;;;;;;;19.02;9.90;;;;;;;10.02;32.50;98297.34;2070884;28;20202;-63
2023/02/08 10:39:49;;;;;;;22.02;9.60;;;;;;;10.12;33.77;98293.72;2070578;28;20260;-63
2023/02/08 10:40:56;;;;;;;19.60;9.40;;;;;;;10.70;33.42;98291.00;2070333;28;20209;-63
2023/02/08 10:41:58;;;;;;;23.95;10.90;;;;;;;9.92;33.51;98294.91;2069859;28;20736;-63
2023/02/08 10:43:10;;;;;;;28.63;10.85;;;;;;;10.86;32.09;98287.19;2071685;28;20218;-63
2023/02/08 10:44:22;;;;;;;23.20;9.50;;;;;;;11.36;31.96;98296.63;2071164;28;20282;-63
2023/02/08 10:45:31;;;;;;;22.38;10.43;;;;;;;12.07;30.93;98292.41;2069768;28;20202;-64
2023/02/08 10:47:26;;;;;;;22.15;10.77;;;;;;;9.96;31.37;98298.31;2068832;28;20428;-63
2023/02/08 10:48:41;;;;;;;36.28;9.85;;;;;;;9.19;34.25;98299.41;2057248;28;20691;-63
2023/02/08 10:50:21;;;;;;;14.65;8.48;;;;;;;7.79;33.63;98297.28;2055451;28;20200;-63
2023/02/08 10:51:23;;;;;;;44.45;9.50;;;;;;;9.35;33.60;98297.47;2029450;29;20252;-63
2023/02/08 10:52:24;;;;;;;43.50;10.18;;;;;;;8.29;33.96;98308.16;2049830;28;20227;-62
2023/02/08 10:53:26;;;;;;;32.90;9.48;;;;;;;8.89;33.54;98294.56;2054900;28;20203;-62
2023/02/08 10:54:27;;;;;;;45.10;10.38;;;;;;;8.66;33.59;98297.44;2069200;28;20713;-63
2023/02/08 10:55:31;;;;;;;37.22;11.13;;;;;;;9.40;33.27;98293.91;2070469;28;20205;-63
2023/02/08 10:56:41;;;;;;;46.35;10.02;;;;;;;8.89;33.87;98301.50;2070156;28;20205;-63
2023/02/08 10:57:45;;;;;;;40.83;9.98;;;;;;;8.65;33.98;98296.56;2070548;28;20225;-63
2023/02/08 10:58:47;;;;;;;21.42;8.98;;;;;;;9.07;32.90;98295.22;2068177;28;20856;-63
2023/02/08 11:00:00;;;;;;;17.45;8.98;;;;;;;7.77;33.25;98293.81;2067803;28;20563;-63
2023/02/08 11:01:02;;;;;;;25.15;10.13;;;;;;;8.03;33.70;98287.59;2071648;28;20202;-63
2023/02/08 11:02:18;;;;;;;26.17;9.82;;;;;;;7.76;35.67;98292.13;2072099;28;20905;-63
2023/02/08 11:03:25;;;;;;;18.17;9.00;;;;;;;7.30;35.85;98290.66;2069808;28;20559;-63
2023/02/08 11:04:27;;;;;;;24.35;9.75;;;;;;;7.29;36.16;98296.75;2070312;28;20593;-63
2023/02/08 11:05:37;;;;;;;20.13;9.50;;;;;;;7.54;35.69;98294.00;2071412;28;20201;-62
2023/02/08 11:06:41;;;;;;;43.97;10.20;;;;;;;8.68;35.53;98295.66;2069479;28;20257;-63
2023/02/08 11:07:43;;;;;;;24.33;10.40;;;;;;;9.59;34.06;98289.31;2070609;28;20250;-63
2023/02/08 11:08:55;;;;;;;22.80;10.07;;;;;;;10.27;34.30;98289.97;2072590;28;20281;-63
2023/02/08 11:10:18;;;;;;;20.75;9.57;;;;;;;10.54;34.13;98280.81;2072522;28;20534;-63
2023/02/08 11:11:19;;;;;;;20.02;11.25;;;;;;;11.30;33.19;98287.19;2071535;28;20201;-63
2023/02/08 11:12:22;;;;;;;22.33;10.07;;;;;;;11.71;32.38;98281.91;2070228;28;20268;-63
2023/02/08 11:13:30;;;;;;;28.30;10.32;;;;;;;12.06;31.85;98283.72;2073014;28;20723;-63
2023/02/08 11:14:39;;;;;;;21.27;10.75;;;;;;;12.06;32.10;98269.75;2073538;28;20221;-63
2023/02/08 11:15:51;;;;;;;22.23;10.25;;;;;;;12.38;31.62;98278.56;2068013;28;20207;-63
2023/02/08 11:16:55;;;;;;;18.70;10.60;;;;;;;12.54;31.27;98273.78;2067814;28;20201;-64
2023/02/08 11:18:00;;;;;;;23.77;11.43;;;;;;;11.97;31.66;98275.22;2070570;28;20205;-63
2023/02/08 11:19:06;;;;;;;32.05;10.30;;;;;;;12.23;31.64;98271.97;2074627;28;20199;-63
2023/02/08 11:20:21;;;;;;;24.05;11.70;;;;;;;12.65;31.18;98273.50;2073085;28;20207;-63
2023/02/08 11:21:28;;;;;;;22.50;11.38;;;;;;;12.69;31.47;98272.50;2073277;28;20220;-63
2023/02/08 11:22:30;;;;;;;21.98;10.68;;;;;;;12.72;30.49;98270.66;2069705;28;20238;-63
2023/02/08 11:23:35;;;;;;;16.95;10.50;;;;;;;12.58;30.87;98252.69;2073568;28;20199;-63
2023/02/08 11:24:42;;;;;;;19.27;10.15;;;;;;;11.27;30.66;98266.31;2072531;28;20252;-63
2023/02/08 11:25:43;;;;;;;20.10;9.75;;;;;;;10.15;32.00;98264.09;2071046;28;20234;-63
2023/02/08 11:26:45;;;;;;;24.63;9.75;;;;;;;8.58;33.23;98266.28;2071057;28;20256;-62
2023/02/08 11:27:47;;;;;;;30.42;11.48;;;;;;;8.25;34.58;98270.91;2067374;28;20201;-63
2023/02/08 11:29:12;;;;;;;18.30;9.93;;;;;;;7.64;35.68;98273.13;2066733;28;20205;-63
2023/02/08 11:30:16;;;;;;;21.50;10.95;;;;;;;6.92;36.66;98264.00;2068589;28;20206;-63
2023/02/08 11:31:20;;;;;;;25.52;10.70;;;;;;;6.74;37.00;98264.91;2070426;28;20303;-63
2023/02/08 11:32:21;;;;;;;27.77;10.70;;;;;;;8.08;36.97;98265.00;2069614;28;20284;-63
2023/02/08 11:33:24;;;;;;;18.20;9.65;;;;;;;8.72;34.45;98266.09;2071939;28;20237;-63
2023/02/08 11:34:38;;;;;;;22.25;10.55;;;;;;;7.84;36.03;98259.94;2071590;28;20199;-63
2023/02/08 11:35:40;;;;;;;25.15;9.48;;;;;;;9.51;35.02;98249.44;2070772;28;20770;-63
2023/02/08 11:36:45;;;;;;;24.48;10.10;;;;;;;10.49;34.13;98240.88;2065151;28;20645;-62
2023/02/08 11:37:49;;;;;;;20.48;8.90;;;;;;;11.44;33.00;98256.34;2070096;28;20264;-63
2023/02/08 11:38:50;;;;;;;20.98;10.13;;;;;;;11.79;32.62;98256.41;2071444;28;20595;-63
2023/02/08 11:39:55;;;;;;;25.00;10.18;;;;;;;12.14;32.05;98248.59;2069918;28;20241;-63
2023/02/08 11:41:00;;;;;;;29.60;11.10;;;;;;;12.14;31.71;98259.09;2071385;28;20198;-62
2023/02/08 11:42:03;;;;;;;22.90;10.82;;;;;;;10.73;32.39;98244.75;2070458;28;20693;-63
2023/02/08 11:43:04;;;;;;;18.55;10.73;;;;;;;10.29;32.70;98239.44;2071967;28;20466;-63
2023/02/08 11:44:06;;;;;;;29.90;11.00;;;;;;;9.67;32.82;98244.84;2070633;28;20204;-63
2023/02/08 11:45:20;;;;;;;26.30;10.18;;;;;;;8.15;35.05;98241.50;2070176;28;20201;-62
2023/02/08 11:46:25;;;;;;;29.73;11.75;;;;;;;10.01;34.61;98246.91;2068156;28;20203;-63
2023/02/08 11:47:31;;;;;;;24.27;10.88;;;;;;;10.70;33.98;98243.97;2072417;28;20237;-63
2023/02/08 11:48:47;;;;;;;17.75;10.00;;;;;;;11.75;32.88;98244.31;2073801;28;20197;-63
2023/02/08 11:49:55;;;;;;;20.65;9.93;;;;;;;12.18;32.23;98240.66;2071364;28;20230;-63
2023/02/08 11:51:01;;;;;;;23.52;10.18;;;;;;;11.72;31.70;98240.00;2072052;28;20226;-63
2023/02/08 11:52:05;;;;;;;24.48;10.38;;;;;;;11.81;31.98;98238.94;2074306;28;20221;-65
2023/02/08 11:53:22;;;;;;;23.10;11.50;;;;;;;10.32;33.52;98232.47;2072984;28;20199;-63
2023/02/08 11:54:40;;;;;;;25.08;9.75;;;;;;;11.29;32.98;98227.91;2069669;28;20203;-63
2023/02/08 11:55:41;;;;;;;22.83;9.90;;;;;;;10.38;33.11;98229.78;2068394;28;20207;-63
2023/02/08 11:56:59;;;;;;;24.15;10.10;;;;;;;10.99;32.50;98225.06;2068424;28;20222;-62
2023/02/08 11:58:24;;;;;;;28.65;10.32;;;;;;;10.58;33.82;98222.41;2068969;28;20194;-63
2023/02/08 11:59:27;;;;;;;21.77;10.63;;;;;;;10.85;32.44;98217.50;2069289;28;20235;-63
2023/02/08 12:00:34;;;;;;;31.05;9.98;;;;;;;9.89;33.13;98215.78;2071375;28;20203;-63
2023/02/08 12:01:39;;;;;;;33.80;10.93;;;;;;;9.74;34.28;98222.16;2073009;28;20196;-63
2023/02/08 12:02:42;;;;;;;22.33;10.45;;;;;;;10.98;32.69;98223.34;2068695;28;20389;-63
2023/02/08 12:03:46;;;;;;;29.83;10.93;;;;;;;10.69;32.88;98216.97;2068955;28;20266;-63
2023/02/08 12:04:48;;;;;;;27.75;11.30;;;;;;;9.80;33.75;98220.28;2072682;28;20625;-63
2023/02/08 12:05:55;;;;;;;32.70;10.52;;;;;;;10.06;33.67;98220.75;2073547;28;20231;-63
2023/02/08 12:07:24;;;;;;;28.38;10.25;;;;;;;11.36;32.74;98226.88;2068996;28;20207;-63
2023/02/08 12:08:44;;;;;;;36.40;10.25;;;;;;;10.21;33.24;98214.38;2067276;28;20289;-63
2023/02/08 12:10:12;;;;;;;18.10;8.85;;;;;;;11.54;32.39;98216.88;2069808;28;20230;-63
2023/02/08 12:11:24;;;;;;;16.77;7.97;;;;;;;11.04;31.69;98219.75;2071442;28;20207;-63
2023/02/08 12:13:00;;;;;;;20.00;9.80;;;;;;;11.56;31.31;98218.56;2071993;28;20248;-63
2023/02/08 12:14:17;;;;;;;16.38;7.72;;;;;;;11.93;31.22;98220.31;2073441;28;20204;-63
2023/02/08 12:16:07;;;;;;;29.20;9.65;;;;;;;10.24;32.92;98219.53;2069481;28;20202;-63
2023/02/08 12:17:29;;;;;;;23.33;9.93;;;;;;;9.84;33.11;98221.13;2073334;28;20324;-63
2023/02/08 12:18:36;;;;;;;14.23;8.15;;;;;;;10.14;33.01;98213.63;2073339;28;20202;-63
2023/02/08 12:19:51;;;;;;;37.60;10.85;;;;;;;10.44;32.37;98217.44;2069853;28;20204;-63
2023/02/08 12:21:08;;;;;;;25.27;10.00;;;;;;;9.52;32.43;98205.97;2070396;28;20200;-62
2023/02/08 12:22:26;;;;;;;30.27;9.35;;;;;;;9.75;33.95;98210.81;2066652;28;20828;-62
2023/02/08 12:23:46;;;;;;;36.08;10.25;;;;;;;9.79;33.39;98213.34;2069587;28;20215;-62
2023/02/08 12:25:06;;;;;;;24.25;9.93;;;;;;;7.31;35.14;98223.09;2069239;28;20268;-62
2023/02/08 12:26:17;;;;;;;34.83;10.60;;;;;;;7.91;36.20;98216.56;2070290;28;20193;-62
2023/02/08 12:27:50;;;;;;;30.08;10.43;;;;;;;9.95;34.52;98200.03;2069652;28;20230;-62
2023/02/08 12:29:10;;;;;;;36.42;15.23;;;;;;;10.39;32.99;98206.22;2069923;28;20198;-62
2023/02/08 12:30:31;;;;;;;27.30;10.40;;;;;;;8.12;35.58;98206.81;2071646;28;20229;-62
2023/02/08 12:31:50;;;;;;;24.45;9.50;;;;;;;8.87;36.23;98212.09;2070174;28;20206;-64
2023/02/08 12:33:19;;;;;;;24.42;8.38;;;;;;;9.79;34.46;98207.28;2069186;28;20217;-62
2023/02/08 12:34:37;;;;;;;22.10;9.98;;;;;;;7.64;35.10;98202.94;2067345;28;20206;-62
2023/02/08 12:36:27;;;;;;;23.35;9.10;;;;;;;7.80;35.54;98202.78;2068440;28;20606;-62
2023/02/08 12:41:09;;;;;;;19.00;9.60;;;;;;;7.03;36.73;98201.59;2069355;28;20201;-62
2023/02/08 12:42:10;;;;;;;27.48;10.35;;;;;;;8.72;36.40;98190.56;2067634;28;20589;-62
2023/02/08 12:43:26;;;;;;;18.20;9.65;;;;;;;7.74;36.48;98190.69;2071455;28;20199;-63
2023/02/08 12:44:48;;;;;;;18.38;9.68;;;;;;;8.20;35.95;98188.53;2070974;28;20202;-63
2023/02/08 12:46:09;;;;;;;23.55;9.27;;;;;;;9.32;34.89;98176.72;2063791;28;20217;-63
2023/02/08 12:47:48;;;;;;;14.88;7.97;;;;;;;10.81;34.37;98178.44;2065780;28;20230;-63
2023/02/08 12:49:10;;;;;;;16.27;7.63;;;;;;;9.18;34.24;98186.50;2071377;28;20220;-62
2023/02/08 12:50:25;;;;;;;21.98;9.35;;;;;;;8.60;34.49;98186.38;2071061;28;20230;-62
2023/02/08 12:51:48;;;;;;;23.67;8.70;;;;;;;7.46;37.22;98183.13;2069681;28;20213;-62
2023/02/08 12:53:04;;;;;;;22.38;10.40;;;;;;;7.77;36.69;98179.41;2071093;28;20222;-62
2023/02/08 12:54:15;;;;;;;25.73;8.55;;;;;;;8.47;37.06;98179.59;2067899;28;20551;-63
2023/02/08 12:55:22;;;;;;;15.05;8.88;;;;;;;9.65;35.89;98184.03;2068115;28;20199;-62
2023/02/08 12:56:35;;;;;;;15.50;8.70;;;;;;;10.40;34.29;98170.56;2070960;28;20205;-62
2023/02/08 12:57:38;;;;;;;21.85;9.30;;;;;;;11.25;33.86;98181.81;2070748;28;20226;-63
2023/02/08 12:58:46;;;;;;;31.08;10.13;;;;;;;10.88;32.64;98177.38;2069985;28;20245;-63
2023/02/08 13:00:19;;;;;;;16.35;8.25;;;;;;;7.86;35.17;98163.72;2066247;28;20203;-63
2023/02/08 13:01:49;;;;;;;19.40;9.55;;;;;;;9.31;35.81;98174.13;2066924;28;20202;-63
2023/02/08 13:03:13;;;;;;;17.13;8.93;;;;;;;10.32;34.26;98159.34;2065540;28;20268;-63
2023/02/08 13:04:38;;;;;;;18.50;8.80;;;;;;;10.56;33.82;98166.75;2072326;28;20240;-63
2023/02/08 13:05:45;;;;;;;23.08;8.20;;;;;;;10.11;34.41;98158.88;2072994;28;20613;-63
2023/02/08 13:07:12;;;;;;;17.58;7.63;;;;;;;9.38;33.90;98151.44;2070772;28;20295;-63
2023/02/08 13:08:13;;;;;;;17.17;8.00;;;;;;;9.77;34.33;98149.88;2068290;28;20217;-63
2023/02/08 13:09:19;;;;;;;14.75;7.78;;;;;;;8.09;35.25;98160.03;2069293;28;20288;-63
2023/02/08 13:10:28;;;;;;;15.25;8.70;;;;;;;7.91;35.38;98156.75;2070785;28;20663;-62
2023/02/08 13:11:47;;;;;;;22.02;9.75;;;;;;;7.51;36.07;98151.91;2068883;28;20199;-63
2023/02/08 13:12:52;;;;;;;28.90;9.27;;;;;;;6.28;38.29;98143.09;2066659;28;20198;-62
2023/02/08 13:14:03;;;;;;;26.30;9.15;;;;;;;8.74;37.30;98141.91;2067934;28;20233;-62
2023/02/08 13:15:07;;;;;;;23.90;8.70;;;;;;;9.43;35.73;98144.38;2069786;28;20669;-63
2023/02/08 13:16:23;;;;;;;15.23;7.45;;;;;;;10.44;34.51;98143.47;2071913;28;20526;-63
2023/02/08 13:17:28;;;;;;;13.88;7.40;;;;;;;10.30;34.07;98141.97;2070079;28;20248;-63
2023/02/08 13:18:38;;;;;;;21.60;8.38;;;;;;;10.50;34.48;98142.47;2077788;28;20209;-63
2023/02/08 13:19:53;;;;;;;16.55;8.30;;;;;;;11.47;33.53;98129.84;2077275;28;20201;-63
2023/02/08 13:21:05;;;;;;;27.10;9.00;;;;;;;11.06;32.76;98132.56;2073758;28;20251;-63
2023/02/08 13:22:12;;;;;;;30.30;10.20;;;;;;;10.44;34.13;98130.41;2065495;28;20226;-63
2023/02/08 13:23:21;;;;;;;22.77;9.70;;;;;;;11.35;33.49;98119.69;2070769;28;20230;-63
2023/02/08 13:24:25;;;;;;;14.65;7.70;;;;;;;12.21;32.81;98127.09;2069731;28;20202;-63
2023/02/08 13:25:31;;;;;;;21.00;9.15;;;;;;;12.25;32.06;98132.22;2067938;28;20234;-63
2023/02/08 13:26:37;;;;;;;15.70;8.05;;;;;;;11.44;32.72;98122.09;2065389;28;20659;-64
2023/02/08 13:27:38;;;;;;;16.45;8.20;;;;;;;12.21;32.56;98108.75;2066406;28;20223;-64
2023/02/08 13:28:46;;;;;;;13.02;7.75;;;;;;;11.94;32.23;98126.91;2072452;28;20574;-63
2023/02/08 13:29:50;;;;;;;15.68;7.95;;;;;;;12.20;32.37;98114.91;2072951;28;20206;-58
2023/02/08 13:31:10;;;;;;;14.52;6.72;;;;;;;12.50;32.10;98117.56;2070902;28;20208;-58
2023/02/08 13:32:29;;;;;;;31.15;15.60;;;;;;;12.35;32.00;98116.22;2073777;28;20367;-58
2023/02/08 13:33:50;;;;;;;35.20;19.58;;;;;;;12.64;31.73;98119.78;2073030;28;20206;-58
2023/02/08 13:35:12;;;;;;;15.13;7.45;;;;;;;10.30;33.85;98115.84;2072727;28;20200;-58
2023/02/08 13:36:28;;;;;;;18.05;8.70;;;;;;;11.37;32.78;98112.66;2071850;28;20212;-58
2023/02/08 13:37:32;;;;;;;21.42;7.38;;;;;;;9.00;32.31;98114.63;2069702;28;20232;-58
2023/02/08 13:38:35;;;;;;;12.50;6.53;;;;;;;8.99;35.58;98112.94;2069611;28;20216;-58
2023/02/08 13:39:43;;;;;;;12.48;7.60;;;;;;;10.37;34.80;98100.09;2069123;28;20664;-58
2023/02/08 13:40:44;;;;;;;11.90;7.05;;;;;;;11.03;33.20;98114.31;2075230;28;20249;-57
2023/02/08 13:41:54;;;;;;;16.67;6.80;;;;;;;11.37;32.71;98108.28;2075366;28;20346;-58
2023/02/08 13:42:58;;;;;;;13.27;7.18;;;;;;;10.49;33.06;98105.06;2073877;28;20208;-57
2023/02/08 13:44:03;;;;;;;14.60;7.60;;;;;;;10.55;33.07;98107.56;2072992;28;20214;-58
2023/02/08 13:45:07;;;;;;;18.25;7.75;;;;;;;11.13;33.93;98111.50;2072995;28;20196;-60
2023/02/08 13:46:10;;;;;;;16.67;7.50;;;;;;;11.65;33.00;98109.34;2071775;28;20291;-60
2023/02/08 13:47:24;;;;;;;13.90;7.85;;;;;;;11.76;33.15;98108.16;2072045;28;20265;-60
2023/02/08 13:48:26;;;;;;;13.10;6.82;;;;;;;12.28;32.30;98109.44;2072172;28;20257;-60
2023/02/08 13:49:48;;;;;;;17.10;7.82;;;;;;;11.30;32.47;98111.09;2066601;28;20277;-61
2023/02/08 13:50:53;;;;;;;13.73;7.65;;;;;;;11.70;32.82;98107.47;2058545;28;20207;-58
2023/02/08 13:51:55;;;;;;;12.18;7.40;;;;;;;11.84;32.66;98041.69;2063629;28;20526;-58
2023/02/08 13:52:56;;;;;;;13.30;7.43;;;;;;;12.38;32.35;98097.81;2069703;28;20230;-58
2023/02/08 13:54:00;;;;;;;14.10;7.05;;;;;;;12.37;32.69;98102.19;2069117;28;20213;-58
2023/02/08 13:55:34;;;;;;;11.27;6.57;;;;;;;12.35;32.56;98103.97;2069064;28;20205;-58
2023/02/08 13:56:42;;;;;;;12.02;6.85;;;;;;;12.70;32.21;98107.34;2068434;28;20193;-58
2023/02/08 13:57:56;;;;;;;12.60;6.95;;;;;;;12.58;32.38;98110.31;2071507;28;20218;-58
2023/02/08 13:59:00;;;;;;;12.80;6.90;;;;;;;12.63;32.07;98099.72;2071299;28;20237;-57
2023/02/08 14:00:21;;;;;;;10.82;6.45;;;;;;;12.22;32.08;98105.25;2068257;28;20194;-57
2023/02/08 14:01:28;;;;;;;15.77;6.63;;;;;;;12.34;32.32;98104.91;2073323;28;20549;-58
2023/02/08 14:02:30;;;;;;;12.35;6.63;;;;;;;12.39;31.89;98100.41;2071062;28;20614;-57
2023/02/08 14:03:33;;;;;;;16.27;7.35;;;;;;;12.68;32.01;98103.91;2071218;28;20230;-58
2023/02/08 14:04:44;;;;;;;17.17;7.60;;;;;;;12.55;32.07;98103.41;2070732;28;20215;-58
2023/02/08 14:06:05;;;;;;;14.30;6.65;;;;;;;12.86;31.78;98102.50;2069285;28;20198;-58
2023/02/08 14:07:10;;;;;;;13.23;4.80;;;;;;;11.48;32.32;98104.53;2069968;28;20222;-58
2023/02/08 14:08:28;;;;;;;13.25;6.68;;;;;;;11.78;33.07;98110.75;2070240;28;20198;-58
2023/02/08 14:10:08;;;;;;;8.85;5.90;;;;;;;10.79;33.15;98102.66;2071192;28;20201;-58
2023/02/08 14:11:21;;;;;;;12.65;5.80;;;;;;;11.05;32.89;98102.06;2063773;28;20372;-58